sensor_id;sensor_type;location;lat;lon;timestamp;pressure;altitude;pressure_sealevel;temperature;humidity
70011;BME280;59543;37.950;-122.338;2023-07-16T00:01:13;100851.72;;;22.65;56.21
70011;BME280;59543;37.950;-122.338;2023-07-16T00:03:39;100846.22;;;22.65;55.32
70011;BME280;59543;37.950;-122.338;2023-07-16T00:06:05;100836.06;;;22.47;55.96
70011;BME280;59543;37.950;-122.338;2023-07-16T00:08:31;100840.00;;;22.76;55.83
70011;BME280;59543;37.950;-122.338;2023-07-16T00:10:58;100829.44;;;22.98;55.59
70011;BME280;59543;37.950;-122.338;2023-07-16T00:13:24;100824.47;;;22.88;55.85
70011;BME280;59543;37.950;-122.338;2023-07-16T00:15:50;100828.53;;;23.04;54.64
70011;BME280;59543;37.950;-122.338;2023-07-16T00:18:16;100832.72;;;23.07;55.74
70011;BME280;59543;37.950;-122.338;2023-07-16T00:20:42;100822.94;;;22.92;55.22
70011;BME280;59543;37.950;-122.338;2023-07-16T00:23:09;100826.47;;;22.81;55.63
70011;BME280;59543;37.950;-122.338;2023-07-16T00:25:35;100830.72;;;22.33;56.79
70011;BME280;59543;37.950;-122.338;2023-07-16T00:28:01;100825.00;;;22.35;57.17
70011;BME280;59543;37.950;-122.338;2023-07-16T00:30:28;100823.97;;;22.36;57.32
70011;BME280;59543;37.950;-122.338;2023-07-16T00:32:54;100828.41;;;22.05;57.97
70011;BME280;59543;37.950;-122.338;2023-07-16T00:35:21;100831.56;;;22.34;57.18
70011;BME280;59543;37.950;-122.338;2023-07-16T00:37:47;100832.28;;;22.23;57.90
70011;BME280;59543;37.950;-122.338;2023-07-16T00:40:13;100825.50;;;22.25;57.47
70011;BME280;59543;37.950;-122.338;2023-07-16T00:42:39;100820.84;;;22.01;58.15
70011;BME280;59543;37.950;-122.338;2023-07-16T00:45:12;100829.44;;;22.04;58.78
70011;BME280;59543;37.950;-122.338;2023-07-16T00:47:41;100821.59;;;21.83;58.94
70011;BME280;59543;37.950;-122.338;2023-07-16T00:50:10;100820.25;;;21.67;59.54
70011;BME280;59543;37.950;-122.338;2023-07-16T00:52:37;100826.50;;;21.74;59.48
70011;BME280;59543;37.950;-122.338;2023-07-16T00:55:06;100822.72;;;21.75;60.05
70011;BME280;59543;37.950;-122.338;2023-07-16T00:57:33;100817.84;;;21.45;60.31
70011;BME280;59543;37.950;-122.338;2023-07-16T00:59:59;100812.75;;;21.49;60.86
70011;BME280;59543;37.950;-122.338;2023-07-16T01:02:26;100813.66;;;21.43;61.61
70011;BME280;59543;37.950;-122.338;2023-07-16T01:04:52;100810.31;;;21.28;60.90
70011;BME280;59543;37.950;-122.338;2023-07-16T01:07:21;100814.72;;;21.29;61.57
70011;BME280;59543;37.950;-122.338;2023-07-16T01:09:51;100800.41;;;21.27;61.11
70011;BME280;59543;37.950;-122.338;2023-07-16T01:12:21;100804.25;;;21.19;61.71
70011;BME280;59543;37.950;-122.338;2023-07-16T01:14:49;100808.06;;;21.11;62.50
70011;BME280;59543;37.950;-122.338;2023-07-16T01:17:15;100805.84;;;20.88;63.05
70011;BME280;59543;37.950;-122.338;2023-07-16T01:19:42;100801.47;;;20.74;63.20
70011;BME280;59543;37.950;-122.338;2023-07-16T01:30:22;100811.16;;;20.76;63.10
70011;BME280;59543;37.950;-122.338;2023-07-16T01:32:49;100818.31;;;20.44;64.07
70011;BME280;59543;37.950;-122.338;2023-07-16T01:35:17;100812.25;;;19.96;64.96
70011;BME280;59543;37.950;-122.338;2023-07-16T01:37:43;100812.84;;;19.84;65.98
70011;BME280;59543;37.950;-122.338;2023-07-16T01:40:13;100809.31;;;20.17;65.83
70011;BME280;59543;37.950;-122.338;2023-07-16T01:42:40;100813.50;;;19.93;66.30
70011;BME280;59543;37.950;-122.338;2023-07-16T01:45:06;100810.97;;;19.72;67.61
70011;BME280;59543;37.950;-122.338;2023-07-16T01:48:05;100810.56;;;19.95;66.55
70011;BME280;59543;37.950;-122.338;2023-07-16T01:50:36;100808.22;;;19.85;66.41
70011;BME280;59543;37.950;-122.338;2023-07-16T01:53:02;100810.75;;;19.73;67.03
70011;BME280;59543;37.950;-122.338;2023-07-16T01:55:29;100812.47;;;20.01;66.09
70011;BME280;59543;37.950;-122.338;2023-07-16T01:57:55;100804.06;;;20.22;65.59
70011;BME280;59543;37.950;-122.338;2023-07-16T02:00:21;100807.81;;;20.21;64.71
70011;BME280;59543;37.950;-122.338;2023-07-16T02:02:48;100804.47;;;20.06;65.30
70011;BME280;59543;37.950;-122.338;2023-07-16T02:05:15;100796.28;;;20.06;65.37
70011;BME280;59543;37.950;-122.338;2023-07-16T02:07:41;100803.41;;;20.20;64.66
70011;BME280;59543;37.950;-122.338;2023-07-16T02:10:07;100796.91;;;20.01;65.31
70011;BME280;59543;37.950;-122.338;2023-07-16T02:12:34;100794.78;;;19.70;65.94
70011;BME280;59543;37.950;-122.338;2023-07-16T02:15:00;100791.84;;;19.65;65.79
70011;BME280;59543;37.950;-122.338;2023-07-16T02:17:26;100794.31;;;19.53;66.75
70011;BME280;59543;37.950;-122.338;2023-07-16T02:19:52;100790.38;;;19.69;65.86
70011;BME280;59543;37.950;-122.338;2023-07-16T02:22:19;100796.47;;;20.38;64.05
70011;BME280;59543;37.950;-122.338;2023-07-16T02:24:45;100790.59;;;20.27;63.92
70011;BME280;59543;37.950;-122.338;2023-07-16T02:27:11;100792.31;;;19.95;64.53
70011;BME280;59543;37.950;-122.338;2023-07-16T02:29:37;100786.81;;;19.88;65.12
70011;BME280;59543;37.950;-122.338;2023-07-16T02:32:04;100789.97;;;20.12;64.45
70011;BME280;59543;37.950;-122.338;2023-07-16T02:34:30;100787.41;;;20.50;63.16
70011;BME280;59543;37.950;-122.338;2023-07-16T02:36:59;100784.94;;;20.02;64.01
70011;BME280;59543;37.950;-122.338;2023-07-16T02:39:26;100788.06;;;19.73;65.19
70011;BME280;59543;37.950;-122.338;2023-07-16T02:41:52;100786.66;;;19.22;66.98
70011;BME280;59543;37.950;-122.338;2023-07-16T02:44:18;100790.72;;;18.85;68.40
70011;BME280;59543;37.950;-122.338;2023-07-16T02:46:44;100794.34;;;18.64;69.44
70011;BME280;59543;37.950;-122.338;2023-07-16T02:49:10;100794.34;;;18.08;71.44
70011;BME280;59543;37.950;-122.338;2023-07-16T02:51:37;100804.44;;;17.86;73.07
70011;BME280;59543;37.950;-122.338;2023-07-16T02:54:03;100799.53;;;17.59;74.21
70011;BME280;59543;37.950;-122.338;2023-07-16T02:56:29;100806.00;;;17.37;75.53
70011;BME280;59543;37.950;-122.338;2023-07-16T02:58:55;100796.06;;;16.93;77.41
70011;BME280;59543;37.950;-122.338;2023-07-16T03:01:22;100801.22;;;16.73;78.27
70011;BME280;59543;37.950;-122.338;2023-07-16T03:03:48;100813.63;;;16.38;80.42
70011;BME280;59543;37.950;-122.338;2023-07-16T03:06:14;100818.84;;;16.10;81.98
70011;BME280;59543;37.950;-122.338;2023-07-16T03:08:40;100813.94;;;15.59;84.92
70011;BME280;59543;37.950;-122.338;2023-07-16T03:11:07;100818.63;;;15.42;86.32
70011;BME280;59543;37.950;-122.338;2023-07-16T03:13:33;100829.41;;;15.50;86.40
70011;BME280;59543;37.950;-122.338;2023-07-16T03:15:59;100822.16;;;15.20;88.09
70011;BME280;59543;37.950;-122.338;2023-07-16T03:18:29;100825.47;;;14.99;89.76
70011;BME280;59543;37.950;-122.338;2023-07-16T03:20:57;100820.19;;;14.97;90.01
70011;BME280;59543;37.950;-122.338;2023-07-16T03:23:23;100831.94;;;14.81;90.96
70011;BME280;59543;37.950;-122.338;2023-07-16T03:25:51;100833.28;;;14.85;91.15
70011;BME280;59543;37.950;-122.338;2023-07-16T03:28:17;100838.78;;;14.45;92.56
70011;BME280;59543;37.950;-122.338;2023-07-16T03:30:48;100848.97;;;14.26;93.71
70011;BME280;59543;37.950;-122.338;2023-07-16T03:33:14;100846.25;;;14.10;95.42
70011;BME280;59543;37.950;-122.338;2023-07-16T03:35:45;100841.88;;;14.17;95.40
70011;BME280;59543;37.950;-122.338;2023-07-16T03:38:12;100843.06;;;14.14;94.92
70011;BME280;59543;37.950;-122.338;2023-07-16T03:40:39;100842.34;;;14.04;95.76
70011;BME280;59543;37.950;-122.338;2023-07-16T03:43:06;100828.19;;;14.02;95.33
70011;BME280;59543;37.950;-122.338;2023-07-16T03:45:32;100831.03;;;14.01;95.40
70011;BME280;59543;37.950;-122.338;2023-07-16T03:47:58;100831.56;;;13.88;96.49
70011;BME280;59543;37.950;-122.338;2023-07-16T03:50:25;100829.00;;;13.94;96.09
70011;BME280;59543;37.950;-122.338;2023-07-16T03:52:51;100834.59;;;13.93;96.42
70011;BME280;59543;37.950;-122.338;2023-07-16T03:55:17;100830.69;;;13.79;96.88
70011;BME280;59543;37.950;-122.338;2023-07-16T03:57:43;100835.94;;;13.72;97.31
70011;BME280;59543;37.950;-122.338;2023-07-16T04:00:10;100847.22;;;13.60;97.92
70011;BME280;59543;37.950;-122.338;2023-07-16T04:02:36;100844.03;;;13.64;97.69
70011;BME280;59543;37.950;-122.338;2023-07-16T04:05:03;100848.59;;;13.64;98.42
70011;BME280;59543;37.950;-122.338;2023-07-16T04:07:29;100850.94;;;13.59;98.41
70011;BME280;59543;37.950;-122.338;2023-07-16T04:09:55;100862.75;;;13.49;99.09
70011;BME280;59543;37.950;-122.338;2023-07-16T04:12:22;100860.00;;;13.33;100.00
70011;BME280;59543;37.950;-122.338;2023-07-16T04:14:48;100863.88;;;13.31;100.00
70011;BME280;59543;37.950;-122.338;2023-07-16T04:17:14;100857.97;;;13.27;100.00
70011;BME280;59543;37.950;-122.338;2023-07-16T04:19:40;100860.00;;;13.33;100.00
70011;BME280;59543;37.950;-122.338;2023-07-16T04:22:07;100855.09;;;13.29;100.00
70011;BME280;59543;37.950;-122.338;2023-07-16T04:24:33;100856.25;;;13.26;100.00
70011;BME280;59543;37.950;-122.338;2023-07-16T04:26:59;100858.25;;;13.24;100.00
70011;BME280;59543;37.950;-122.338;2023-07-16T04:29:25;100863.66;;;13.24;100.00
70011;BME280;59543;37.950;-122.338;2023-07-16T04:31:51;100860.34;;;13.30;100.00
70011;BME280;59543;37.950;-122.338;2023-07-16T04:34:18;100861.00;;;13.32;100.00
70011;BME280;59543;37.950;-122.338;2023-07-16T04:36:44;100864.31;;;13.18;100.00
70011;BME280;59543;37.950;-122.338;2023-07-16T04:39:10;100871.06;;;13.22;100.00
70011;BME280;59543;37.950;-122.338;2023-07-16T04:41:37;100864.13;;;13.19;100.00
70011;BME280;59543;37.950;-122.338;2023-07-16T04:44:04;100867.34;;;13.15;100.00
70011;BME280;59543;37.950;-122.338;2023-07-16T04:46:30;100866.94;;;13.36;100.00
70011;BME280;59543;37.950;-122.338;2023-07-16T04:48:56;100870.13;;;13.31;100.00
70011;BME280;59543;37.950;-122.338;2023-07-16T04:51:23;100867.91;;;13.26;100.00
70011;BME280;59543;37.950;-122.338;2023-07-16T04:53:49;100869.22;;;13.22;100.00
70011;BME280;59543;37.950;-122.338;2023-07-16T04:56:16;100869.34;;;13.13;100.00
70011;BME280;59543;37.950;-122.338;2023-07-16T04:58:42;100876.25;;;13.07;100.00
70011;BME280;59543;37.950;-122.338;2023-07-16T05:01:09;100872.84;;;12.97;100.00
70011;BME280;59543;37.950;-122.338;2023-07-16T05:03:36;100866.88;;;12.93;100.00
70011;BME280;59543;37.950;-122.338;2023-07-16T05:06:04;100874.56;;;13.06;100.00
70011;BME280;59543;37.950;-122.338;2023-07-16T05:08:30;100869.75;;;12.92;100.00
70011;BME280;59543;37.950;-122.338;2023-07-16T05:10:56;100877.09;;;13.08;100.00
70011;BME280;59543;37.950;-122.338;2023-07-16T05:13:23;100880.38;;;12.93;100.00
70011;BME280;59543;37.950;-122.338;2023-07-16T05:15:49;100880.28;;;13.11;100.00
70011;BME280;59543;37.950;-122.338;2023-07-16T05:18:16;100884.28;;;12.91;100.00
70011;BME280;59543;37.950;-122.338;2023-07-16T05:20:42;100883.06;;;12.85;100.00
70011;BME280;59543;37.950;-122.338;2023-07-16T05:23:10;100883.41;;;12.90;100.00
70011;BME280;59543;37.950;-122.338;2023-07-16T05:25:36;100884.75;;;12.86;100.00
70011;BME280;59543;37.950;-122.338;2023-07-16T05:28:02;100886.09;;;12.90;100.00
70011;BME280;59543;37.950;-122.338;2023-07-16T05:30:28;100885.69;;;12.77;100.00
70011;BME280;59543;37.950;-122.338;2023-07-16T05:32:55;100883.00;;;12.77;100.00
70011;BME280;59543;37.950;-122.338;2023-07-16T05:35:21;100891.25;;;12.75;100.00
70011;BME280;59543;37.950;-122.338;2023-07-16T05:37:47;100889.19;;;12.69;100.00
70011;BME280;59543;37.950;-122.338;2023-07-16T05:40:13;100896.00;;;12.81;100.00
70011;BME280;59543;37.950;-122.338;2023-07-16T05:42:40;100894.66;;;12.77;100.00
70011;BME280;59543;37.950;-122.338;2023-07-16T05:45:06;100902.28;;;12.82;100.00
70011;BME280;59543;37.950;-122.338;2023-07-16T05:47:32;100905.56;;;12.68;100.00
70011;BME280;59543;37.950;-122.338;2023-07-16T05:49:59;100912.19;;;12.81;100.00
70011;BME280;59543;37.950;-122.338;2023-07-16T05:52:26;100910.69;;;12.79;100.00
70011;BME280;59543;37.950;-122.338;2023-07-16T05:54:52;100912.19;;;12.73;100.00
70011;BME280;59543;37.950;-122.338;2023-07-16T05:57:18;100913.34;;;12.71;100.00
70011;BME280;59543;37.950;-122.338;2023-07-16T05:59:44;100914.34;;;12.70;100.00
70011;BME280;59543;37.950;-122.338;2023-07-16T06:02:11;100920.22;;;12.65;100.00
70011;BME280;59543;37.950;-122.338;2023-07-16T06:04:37;100917.50;;;12.65;100.00
70011;BME280;59543;37.950;-122.338;2023-07-16T06:07:03;100912.44;;;12.62;100.00
70011;BME280;59543;37.950;-122.338;2023-07-16T06:09:30;100903.38;;;12.71;100.00
70011;BME280;59543;37.950;-122.338;2023-07-16T06:11:56;100908.00;;;12.79;100.00
70011;BME280;59543;37.950;-122.338;2023-07-16T06:14:22;100913.06;;;12.82;100.00
70011;BME280;59543;37.950;-122.338;2023-07-16T06:16:48;100899.59;;;12.90;100.00
70011;BME280;59543;37.950;-122.338;2023-07-16T06:19:15;100899.84;;;12.97;100.00
70011;BME280;59543;37.950;-122.338;2023-07-16T06:21:41;100904.78;;;13.10;100.00
70011;BME280;59543;37.950;-122.338;2023-07-16T06:24:07;100905.63;;;13.10;100.00
70011;BME280;59543;37.950;-122.338;2023-07-16T06:26:36;100905.16;;;13.15;100.00
70011;BME280;59543;37.950;-122.338;2023-07-16T06:29:02;100900.94;;;13.20;100.00
70011;BME280;59543;37.950;-122.338;2023-07-16T06:31:28;100897.06;;;13.15;100.00
70011;BME280;59543;37.950;-122.338;2023-07-16T06:33:54;100900.09;;;13.20;100.00
70011;BME280;59543;37.950;-122.338;2023-07-16T06:36:20;100906.78;;;13.08;100.00
70011;BME280;59543;37.950;-122.338;2023-07-16T06:38:47;100904.34;;;12.96;100.00
70011;BME280;59543;37.950;-122.338;2023-07-16T06:41:13;100909.41;;;12.91;100.00
70011;BME280;59543;37.950;-122.338;2023-07-16T06:43:39;100913.75;;;12.84;100.00
70011;BME280;59543;37.950;-122.338;2023-07-16T06:46:05;100914.25;;;12.79;100.00
70011;BME280;59543;37.950;-122.338;2023-07-16T06:48:32;100910.16;;;12.75;100.00
70011;BME280;59543;37.950;-122.338;2023-07-16T06:50:58;100909.38;;;12.83;100.00
70011;BME280;59543;37.950;-122.338;2023-07-16T06:53:24;100906.41;;;12.68;100.00
70011;BME280;59543;37.950;-122.338;2023-07-16T06:55:50;100909.31;;;12.75;100.00
70011;BME280;59543;37.950;-122.338;2023-07-16T06:58:17;100903.25;;;12.73;100.00
70011;BME280;59543;37.950;-122.338;2023-07-16T07:00:43;100917.09;;;12.78;100.00
70011;BME280;59543;37.950;-122.338;2023-07-16T07:03:10;100914.34;;;12.70;100.00
70011;BME280;59543;37.950;-122.338;2023-07-16T07:05:36;100910.63;;;12.71;100.00
70011;BME280;59543;37.950;-122.338;2023-07-16T07:08:02;100907.75;;;12.72;100.00
70011;BME280;59543;37.950;-122.338;2023-07-16T07:10:29;100914.38;;;12.78;100.00
70011;BME280;59543;37.950;-122.338;2023-07-16T07:12:55;100917.38;;;12.67;100.00
70011;BME280;59543;37.950;-122.338;2023-07-16T07:15:21;100919.97;;;12.76;100.00
70011;BME280;59543;37.950;-122.338;2023-07-16T07:17:47;100918.47;;;12.82;100.00
70011;BME280;59543;37.950;-122.338;2023-07-16T07:20:14;100919.50;;;12.63;100.00
70011;BME280;59543;37.950;-122.338;2023-07-16T07:22:40;100924.28;;;12.69;100.00
70011;BME280;59543;37.950;-122.338;2023-07-16T07:25:07;100916.03;;;12.71;100.00
70011;BME280;59543;37.950;-122.338;2023-07-16T07:27:33;100916.97;;;12.62;100.00
70011;BME280;59543;37.950;-122.338;2023-07-16T07:29:59;100920.22;;;12.65;100.00
70011;BME280;59543;37.950;-122.338;2023-07-16T07:32:25;100910.25;;;12.66;100.00
70011;BME280;59543;37.950;-122.338;2023-07-16T07:34:52;100909.63;;;12.72;100.00
70011;BME280;59543;37.950;-122.338;2023-07-16T07:37:18;100913.72;;;12.76;100.00
70011;BME280;59543;37.950;-122.338;2023-07-16T07:39:44;100904.59;;;12.77;100.00
70011;BME280;59543;37.950;-122.338;2023-07-16T07:42:13;100905.56;;;12.68;100.00
70011;BME280;59543;37.950;-122.338;2023-07-16T07:44:40;100909.59;;;12.64;100.00
70011;BME280;59543;37.950;-122.338;2023-07-16T07:47:06;100898.47;;;12.67;100.00
70011;BME280;59543;37.950;-122.338;2023-07-16T07:49:34;100900.94;;;12.60;100.00
70011;BME280;59543;37.950;-122.338;2023-07-16T07:52:00;100898.94;;;12.62;100.00
70011;BME280;59543;37.950;-122.338;2023-07-16T07:54:27;100893.06;;;12.67;100.00
70011;BME280;59543;37.950;-122.338;2023-07-16T07:56:53;100897.53;;;12.76;100.00
70011;BME280;59543;37.950;-122.338;2023-07-16T07:59:19;100887.38;;;12.70;100.00
70011;BME280;59543;37.950;-122.338;2023-07-16T08:01:45;100891.03;;;12.69;100.00
70011;BME280;59543;37.950;-122.338;2023-07-16T08:04:12;100889.56;;;12.74;100.00
70011;BME280;59543;37.950;-122.338;2023-07-16T08:06:38;100887.38;;;12.70;100.00
70011;BME280;59543;37.950;-122.338;2023-07-16T08:09:04;100890.72;;;12.72;100.00
70011;BME280;59543;37.950;-122.338;2023-07-16T08:11:31;100890.19;;;12.68;100.00
70011;BME280;59543;37.950;-122.338;2023-07-16T08:13:57;100891.56;;;12.72;100.00
70011;BME280;59543;37.950;-122.338;2023-07-16T08:16:23;100886.41;;;12.79;100.00
70011;BME280;59543;37.950;-122.338;2023-07-16T08:18:49;100888.41;;;12.77;100.00
70011;BME280;59543;37.950;-122.338;2023-07-16T08:21:15;100889.41;;;12.76;100.00
70011;BME280;59543;37.950;-122.338;2023-07-16T08:23:48;100888.84;;;12.64;100.00
70011;BME280;59543;37.950;-122.338;2023-07-16T08:26:14;100890.16;;;12.60;100.00
70011;BME280;59543;37.950;-122.338;2023-07-16T08:28:41;100896.25;;;12.62;100.00
70011;BME280;59543;37.950;-122.338;2023-07-16T08:31:07;100891.75;;;12.71;100.00
70011;BME280;59543;37.950;-122.338;2023-07-16T08:33:33;100890.47;;;12.57;100.00
70011;BME280;59543;37.950;-122.338;2023-07-16T08:35:59;100896.31;;;12.70;100.00
70011;BME280;59543;37.950;-122.338;2023-07-16T08:38:26;100901.19;;;12.75;100.00
70011;BME280;59543;37.950;-122.338;2023-07-16T08:40:52;100888.09;;;12.80;100.00
70011;BME280;59543;37.950;-122.338;2023-07-16T08:43:18;100894.25;;;12.72;100.00
70011;BME280;59543;37.950;-122.338;2023-07-16T08:45:46;100893.16;;;12.83;100.00
70011;BME280;59543;37.950;-122.338;2023-07-16T08:48:14;100894.84;;;12.84;100.00
70011;BME280;59543;37.950;-122.338;2023-07-16T08:50:42;100893.16;;;12.83;100.00
70011;BME280;59543;37.950;-122.338;2023-07-16T08:53:08;100886.91;;;12.82;100.00
70011;BME280;59543;37.950;-122.338;2023-07-16T08:55:34;100892.13;;;12.76;100.00
70011;BME280;59543;37.950;-122.338;2023-07-16T08:58:04;100900.03;;;12.77;100.00
70011;BME280;59543;37.950;-122.338;2023-07-16T09:00:30;100894.97;;;12.74;100.00
70011;BME280;59543;37.950;-122.338;2023-07-16T09:02:57;100884.34;;;12.73;100.00
70011;BME280;59543;37.950;-122.338;2023-07-16T09:05:24;100879.09;;;12.71;100.00
70011;BME280;59543;37.950;-122.338;2023-07-16T09:07:50;100883.47;;;12.72;100.00
70011;BME280;59543;37.950;-122.338;2023-07-16T09:10:16;100879.94;;;12.72;100.00
70011;BME280;59543;37.950;-122.338;2023-07-16T09:12:45;100878.94;;;12.73;100.00
70011;BME280;59543;37.950;-122.338;2023-07-16T09:15:13;100873.38;;;12.74;100.00
70011;BME280;59543;37.950;-122.338;2023-07-16T09:17:42;100872.72;;;12.80;100.00
70011;BME280;59543;37.950;-122.338;2023-07-16T09:20:17;100875.09;;;12.84;100.00
70011;BME280;59543;37.950;-122.338;2023-07-16T09:22:44;100876.59;;;12.78;100.00
70011;BME280;59543;37.950;-122.338;2023-07-16T09:25:11;100871.88;;;12.80;100.00
70011;BME280;59543;37.950;-122.338;2023-07-16T09:27:37;100868.34;;;12.79;100.00
70011;BME280;59543;37.950;-122.338;2023-07-16T09:30:05;100870.88;;;12.81;100.00
70011;BME280;59543;37.950;-122.338;2023-07-16T09:32:38;100870.84;;;12.73;100.00
70011;BME280;59543;37.950;-122.338;2023-07-16T09:35:12;100880.00;;;12.80;100.00
70011;BME280;59543;37.950;-122.338;2023-07-16T09:37:38;100870.03;;;12.80;100.00
70011;BME280;59543;37.950;-122.338;2023-07-16T09:40:06;100874.06;;;12.76;100.00
70011;BME280;59543;37.950;-122.338;2023-07-16T09:42:40;100871.19;;;12.78;100.00
70011;BME280;59543;37.950;-122.338;2023-07-16T09:45:08;100872.41;;;12.84;100.00
70011;BME280;59543;37.950;-122.338;2023-07-16T09:47:35;100866.31;;;12.81;100.00
70011;BME280;59543;37.950;-122.338;2023-07-16T09:50:04;100867.19;;;12.90;100.00
70011;BME280;59543;37.950;-122.338;2023-07-16T09:52:32;100855.88;;;12.87;100.00
70011;BME280;59543;37.950;-122.338;2023-07-16T09:55:01;100855.75;;;12.96;100.00
70011;BME280;59543;37.950;-122.338;2023-07-16T09:57:30;100860.81;;;12.91;100.00
70011;BME280;59543;37.950;-122.338;2023-07-16T10:00:02;100859.59;;;12.86;100.00
70011;BME280;59543;37.950;-122.338;2023-07-16T10:02:33;100859.97;;;12.91;100.00
70011;BME280;59543;37.950;-122.338;2023-07-16T10:05:24;100856.25;;;12.92;100.00
70011;BME280;59543;37.950;-122.338;2023-07-16T10:07:59;100850.69;;;12.93;100.00
70011;BME280;59543;37.950;-122.338;2023-07-16T10:10:54;100841.06;;;12.91;100.00
70011;BME280;59543;37.950;-122.338;2023-07-16T10:13:23;100844.63;;;12.99;100.00
70011;BME280;59543;37.950;-122.338;2023-07-16T10:15:54;100844.28;;;12.94;100.00
70011;BME280;59543;37.950;-122.338;2023-07-16T10:18:30;100849.03;;;13.00;100.00
70011;BME280;59543;37.950;-122.338;2023-07-16T10:21:03;100845.84;;;13.05;100.00
70011;BME280;59543;37.950;-122.338;2023-07-16T10:23:43;100840.56;;;12.95;100.00
70011;BME280;59543;37.950;-122.338;2023-07-16T10:26:14;100838.25;;;13.00;100.00
70011;BME280;59543;37.950;-122.338;2023-07-16T10:28:41;100832.84;;;13.00;100.00
70011;BME280;59543;37.950;-122.338;2023-07-16T10:31:23;100834.19;;;13.04;100.00
70011;BME280;59543;37.950;-122.338;2023-07-16T10:33:58;100828.81;;;13.04;100.00
70011;BME280;59543;37.950;-122.338;2023-07-16T10:36:25;100836.56;;;13.08;100.00
70011;BME280;59543;37.950;-122.338;2023-07-16T10:38:52;100836.09;;;13.12;100.00
70011;BME280;59543;37.950;-122.338;2023-07-16T10:41:18;100831.50;;;13.04;100.00
70011;BME280;59543;37.950;-122.338;2023-07-16T10:43:45;100841.47;;;13.04;100.00
70011;BME280;59543;37.950;-122.338;2023-07-16T10:46:11;100833.19;;;13.05;100.00
70011;BME280;59543;37.950;-122.338;2023-07-16T10:48:37;100830.69;;;13.12;100.00
70011;BME280;59543;37.950;-122.338;2023-07-16T10:51:04;100831.03;;;13.09;100.00
70011;BME280;59543;37.950;-122.338;2023-07-16T10:53:30;100830.66;;;13.04;100.00
70011;BME280;59543;37.950;-122.338;2023-07-16T10:55:58;100836.44;;;13.09;100.00
70011;BME280;59543;37.950;-122.338;2023-07-16T10:58:26;100839.97;;;13.10;100.00
70011;BME280;59543;37.950;-122.338;2023-07-16T11:00:53;100831.91;;;13.18;100.00
70011;BME280;59543;37.950;-122.338;2023-07-16T11:03:19;100832.56;;;13.20;100.00
70011;BME280;59543;37.950;-122.338;2023-07-16T11:05:46;100835.97;;;13.22;100.00
70011;BME280;59543;37.950;-122.338;2023-07-16T11:08:22;100833.25;;;13.22;100.00
70011;BME280;59543;37.950;-122.338;2023-07-16T11:10:56;100827.34;;;13.18;100.00
70011;BME280;59543;37.950;-122.338;2023-07-16T11:13:33;100827.16;;;13.20;100.00
70011;BME280;59543;37.950;-122.338;2023-07-16T11:16:09;100826.81;;;13.15;100.00
70011;BME280;59543;37.950;-122.338;2023-07-16T11:18:36;100824.78;;;13.17;100.00
70011;BME280;59543;37.950;-122.338;2023-07-16T11:21:03;100822.41;;;13.14;100.00
70011;BME280;59543;37.950;-122.338;2023-07-16T11:23:32;100830.03;;;13.18;100.00
70011;BME280;59543;37.950;-122.338;2023-07-16T11:26:02;100830.88;;;13.19;100.00
70011;BME280;59543;37.950;-122.338;2023-07-16T11:28:39;100824.63;;;13.18;100.00
70011;BME280;59543;37.950;-122.338;2023-07-16T11:31:16;100818.91;;;13.21;100.00
70011;BME280;59543;37.950;-122.338;2023-07-16T11:33:44;100816.03;;;13.23;100.00
70011;BME280;59543;37.950;-122.338;2023-07-16T11:36:11;100822.16;;;13.25;100.00
70011;BME280;59543;37.950;-122.338;2023-07-16T11:38:38;100830.94;;;13.35;100.00
70011;BME280;59543;37.950;-122.338;2023-07-16T11:41:05;100829.22;;;13.26;100.00
70011;BME280;59543;37.950;-122.338;2023-07-16T11:43:37;100821.81;;;13.28;100.00
70011;BME280;59543;37.950;-122.338;2023-07-16T11:46:15;100829.22;;;13.26;100.00
70011;BME280;59543;37.950;-122.338;2023-07-16T11:48:44;100830.88;;;13.19;100.00
70011;BME280;59543;37.950;-122.338;2023-07-16T11:51:10;100840.16;;;13.16;100.00
70011;BME280;59543;37.950;-122.338;2023-07-16T11:53:37;100840.66;;;13.20;100.00
70011;BME280;59543;37.950;-122.338;2023-07-16T11:56:03;100845.06;;;13.21;100.00
70011;BME280;59543;37.950;-122.338;2023-07-16T11:58:29;100841.13;;;13.07;100.00
70011;BME280;59543;37.950;-122.338;2023-07-16T12:00:55;100845.41;;;13.18;100.00
70011;BME280;59543;37.950;-122.338;2023-07-16T12:03:22;100845.88;;;13.13;100.00
70011;BME280;59543;37.950;-122.338;2023-07-16T12:05:48;100851.13;;;13.15;100.00
70011;BME280;59543;37.950;-122.338;2023-07-16T12:08:14;100847.41;;;13.16;100.00
70011;BME280;59543;37.950;-122.338;2023-07-16T12:10:41;100852.09;;;13.05;100.00
70011;BME280;59543;37.950;-122.338;2023-07-16T12:13:07;100850.03;;;12.99;100.00
70011;BME280;59543;37.950;-122.338;2023-07-16T12:15:33;100852.22;;;12.96;100.00
70011;BME280;59543;37.950;-122.338;2023-07-16T12:18:00;100843.94;;;12.89;100.00
70011;BME280;59543;37.950;-122.338;2023-07-16T12:20:26;100840.56;;;12.95;100.00
70011;BME280;59543;37.950;-122.338;2023-07-16T12:22:52;100835.19;;;12.95;100.00